Terminal Aerodrome Forecast
Issued by NWS

Home | Current Version | Previous Version | Graphics & Text | Print | Product List | Glossary On
Versions: 1 2 3 4 5 6 7 8 9 10 11 12
000
FTUS43 KGRB 241720
TAFATW
TAF
KATW 241720Z 2418/2518 16008G14KT P6SM -RA BKN070
     FM242100 13008G14KT P6SM -SHRA SCT022 OVC045
      TEMPO 2421/2424 5SM -RA BR OVC022
     FM250000 09010KT 3SM RA BR OVC012
     FM250300 08009KT 3SM RA BR BKN006 WS012/16040KT
     FM250900 15007KT 2SM -RADZ BR BKN004 WS012/19045KT
     FM251600 16013G23KT P6SM BKN012=

USA.gov is the U.S. government's official web portal to all federal, state and local government web resources and services.